Terminal Aerodrome Forecast
Issued by NWS Billings, MT

Home | Current Version | Previous Version | Text Only | Print | Product List | Glossary Off
Versions: 1 2 3 4 5 6 7 8 9 10 11 12 13 14 15 16 17 18 19 20 21 22 23 24 25 26 27 28 29 30 31 32 33 34 35 36 37 38 39 40 41 42 43 44 45 46

000
FTUS45 KBYZ 280930 AAA
TAFMLS
TAF AMD
KMLS 280930Z 2810/2906 02012KT P6SM SCT025 OVC050
     FM281200 05015KT 4SM -RA BR OVC015
     FM281700 05014KT 3SM -RA BR OVC012
     FM290000 08009KT P6SM -RA BKN030 OVC050=

USA.gov is the U.S. government's official web portal to all federal, state and local government web resources and services.